sensor_id;sensor_type;location;lat;lon;timestamp;pressure;altitude;pressure_sealevel;temperature;humidity
34500;BME280;20745;50.882;6.962;2023-03-18T00:00:09;100297.06;;;12.38;100.00
34500;BME280;20745;50.882;6.962;2023-03-18T00:02:37;100300.59;;;12.31;100.00
34500;BME280;20745;50.882;6.962;2023-03-18T00:05:06;100318.09;;;12.29;100.00
34500;BME280;20745;50.882;6.962;2023-03-18T00:07:34;100316.81;;;12.25;100.00
34500;BME280;20745;50.882;6.962;2023-03-18T00:10:02;100276.13;;;12.05;100.00
34500;BME280;20745;50.882;6.962;2023-03-18T00:12:29;100318.47;;;12.26;100.00
34500;BME280;20745;50.882;6.962;2023-03-18T00:14:56;100317.22;;;12.28;100.00
34500;BME280;20745;50.882;6.962;2023-03-18T00:17:22;100319.13;;;12.28;100.00
34500;BME280;20745;50.882;6.962;2023-03-18T00:19:49;100326.41;;;12.27;100.00
34500;BME280;20745;50.882;6.962;2023-03-18T00:22:16;100320.34;;;12.19;100.00
34500;BME280;20745;50.882;6.962;2023-03-18T00:24:42;100319.34;;;12.26;100.00
34500;BME280;20745;50.882;6.962;2023-03-18T00:27:09;100313.66;;;12.21;100.00
34500;BME280;20745;50.882;6.962;2023-03-18T00:29:35;100315.13;;;12.17;100.00
34500;BME280;20745;50.882;6.962;2023-03-18T00:32:03;100309.09;;;12.22;100.00
34500;BME280;20745;50.882;6.962;2023-03-18T00:34:29;100311.81;;;12.22;100.00
34500;BME280;20745;50.882;6.962;2023-03-18T00:36:56;100306.41;;;12.22;100.00
34500;BME280;20745;50.882;6.962;2023-03-18T00:39:23;100301.41;;;12.25;100.00
34500;BME280;20745;50.882;6.962;2023-03-18T00:41:55;100301.19;;;12.20;100.00
34500;BME280;20745;50.882;6.962;2023-03-18T00:44:22;100319.34;;;12.26;100.00
34500;BME280;20745;50.882;6.962;2023-03-18T00:46:50;100328.06;;;12.28;100.00
34500;BME280;20745;50.882;6.962;2023-03-18T00:49:17;100324.53;;;12.28;100.00
34500;BME280;20745;50.882;6.962;2023-03-18T00:51:45;100332.47;;;12.29;100.00
34500;BME280;20745;50.882;6.962;2023-03-18T00:54:12;100327.88;;;12.30;100.00
34500;BME280;20745;50.882;6.962;2023-03-18T00:56:43;100318.94;;;12.36;100.00
34500;BME280;20745;50.882;6.962;2023-03-18T00:59:10;100327.72;;;12.38;100.00
34500;BME280;20745;50.882;6.962;2023-03-18T01:01:37;100328.31;;;12.40;100.00
34500;BME280;20745;50.882;6.962;2023-03-18T01:04:05;100327.91;;;12.37;100.00
34500;BME280;20745;50.882;6.962;2023-03-18T01:06:33;100320.19;;;12.33;100.00
34500;BME280;20745;50.882;6.962;2023-03-18T01:09:01;100311.88;;;12.42;100.00
34500;BME280;20745;50.882;6.962;2023-03-18T01:11:27;100315.22;;;12.44;100.00
34500;BME280;20745;50.882;6.962;2023-03-18T01:13:54;100291.47;;;12.46;100.00
34500;BME280;20745;50.882;6.962;2023-03-18T01:16:22;100291.25;;;12.41;100.00
34500;BME280;20745;50.882;6.962;2023-03-18T01:18:48;100299.38;;;12.41;100.00
34500;BME280;20745;50.882;6.962;2023-03-18T01:21:15;100303.13;;;12.40;100.00
34500;BME280;20745;50.882;6.962;2023-03-18T01:23:43;100323.97;;;12.39;100.00
34500;BME280;20745;50.882;6.962;2023-03-18T01:26:10;100310.63;;;12.38;100.00
34500;BME280;20745;50.882;6.962;2023-03-18T01:28:37;100310.81;;;12.29;100.00
34500;BME280;20745;50.882;6.962;2023-03-18T01:31:04;100317.69;;;12.32;100.00
34500;BME280;20745;50.882;6.962;2023-03-18T01:33:31;100311.81;;;12.28;100.00
34500;BME280;20745;50.882;6.962;2023-03-18T01:35:59;100317.22;;;12.28;100.00
34500;BME280;20745;50.882;6.962;2023-03-18T01:38:27;100316.41;;;12.28;100.00
34500;BME280;20745;50.882;6.962;2023-03-18T01:40:57;100305.59;;;12.28;100.00
34500;BME280;20745;50.882;6.962;2023-03-18T01:43:30;100304.94;;;12.26;100.00
34500;BME280;20745;50.882;6.962;2023-03-18T01:45:59;100297.63;;;12.20;100.00
34500;BME280;20745;50.882;6.962;2023-03-18T01:48:30;100287.63;;;12.20;100.00
34500;BME280;20745;50.882;6.962;2023-03-18T01:51:04;100279.91;;;12.17;100.00
34500;BME280;20745;50.882;6.962;2023-03-18T01:53:35;100290.56;;;12.19;100.00
34500;BME280;20745;50.882;6.962;2023-03-18T01:56:05;100274.72;;;12.16;100.00
34500;BME280;20745;50.882;6.962;2023-03-18T01:58:37;100285.94;;;12.13;100.00
34500;BME280;20745;50.882;6.962;2023-03-18T02:01:13;100308.44;;;12.13;100.00
34500;BME280;20745;50.882;6.962;2023-03-18T02:03:43;100304.69;;;12.14;100.00
34500;BME280;20745;50.882;6.962;2023-03-18T02:06:10;100299.28;;;12.14;100.00
34500;BME280;20745;50.882;6.962;2023-03-18T02:08:38;100306.34;;;12.15;100.00
34500;BME280;20745;50.882;6.962;2023-03-18T02:11:07;100298.22;;;12.15;100.00
34500;BME280;20745;50.882;6.962;2023-03-18T02:13:37;100301.13;;;12.14;100.00
34500;BME280;20745;50.882;6.962;2023-03-18T02:16:08;100289.69;;;12.12;100.00
34500;BME280;20745;50.882;6.962;2023-03-18T02:18:41;100275.50;;;12.03;100.00
34500;BME280;20745;50.882;6.962;2023-03-18T02:21:36;100280.94;;;12.10;100.00
34500;BME280;20745;50.882;6.962;2023-03-18T02:24:35;100284.22;;;12.05;100.00
34500;BME280;20745;50.882;6.962;2023-03-18T02:27:31;100285.06;;;11.99;100.00
34500;BME280;20745;50.882;6.962;2023-03-18T02:30:05;100275.84;;;11.94;100.00
34500;BME280;20745;50.882;6.962;2023-03-18T02:32:33;100277.53;;;11.95;100.00
34500;BME280;20745;50.882;6.962;2023-03-18T02:35:02;100274.63;;;11.96;100.00
34500;BME280;20745;50.882;6.962;2023-03-18T02:37:30;100243.28;;;11.74;100.00
34500;BME280;20745;50.882;6.962;2023-03-18T02:40:22;100277.88;;;11.85;100.00
34500;BME280;20745;50.882;6.962;2023-03-18T02:42:50;100279.34;;;11.81;100.00
34500;BME280;20745;50.882;6.962;2023-03-18T02:47:58;100290.34;;;11.73;100.00
34500;BME280;20745;50.882;6.962;2023-03-18T02:50:26;100292.38;;;11.71;100.00
34500;BME280;20745;50.882;6.962;2023-03-18T02:52:53;100289.69;;;11.71;100.00
34500;BME280;20745;50.882;6.962;2023-03-18T02:55:19;100296.13;;;11.70;100.00
34500;BME280;20745;50.882;6.962;2023-03-18T02:57:46;100302.34;;;11.64;100.00
34500;BME280;20745;50.882;6.962;2023-03-18T03:00:12;100300.38;;;11.58;100.00
34500;BME280;20745;50.882;6.962;2023-03-18T03:02:39;100303.09;;;11.58;100.00
34500;BME280;20745;50.882;6.962;2023-03-18T03:05:06;100306.38;;;11.54;100.00
34500;BME280;20745;50.882;6.962;2023-03-18T03:07:34;100306.34;;;11.47;100.00
34500;BME280;20745;50.882;6.962;2023-03-18T03:10:01;100316.13;;;11.48;100.00
34500;BME280;20745;50.882;6.962;2023-03-18T03:12:28;100310.50;;;11.43;100.00
34500;BME280;20745;50.882;6.962;2023-03-18T03:14:54;100309.63;;;11.43;100.00
34500;BME280;20745;50.882;6.962;2023-03-18T03:17:21;100322.97;;;11.44;100.00
34500;BME280;20745;50.882;6.962;2023-03-18T03:19:48;100305.47;;;11.40;100.00
34500;BME280;20745;50.882;6.962;2023-03-18T03:22:15;100301.63;;;11.28;100.00
34500;BME280;20745;50.882;6.962;2023-03-18T03:24:42;100315.00;;;11.36;100.00
34500;BME280;20745;50.882;6.962;2023-03-18T03:27:10;100324.09;;;11.29;100.00
34500;BME280;20745;50.882;6.962;2023-03-18T03:29:37;100322.84;;;11.31;100.00
34500;BME280;20745;50.882;6.962;2023-03-18T03:32:05;100319.06;;;11.26;100.00
34500;BME280;20745;50.882;6.962;2023-03-18T03:34:31;100322.44;;;11.28;100.00
34500;BME280;20745;50.882;6.962;2023-03-18T03:36:59;100325.53;;;11.25;100.00
34500;BME280;20745;50.882;6.962;2023-03-18T03:39:25;100333.63;;;11.25;100.00
34500;BME280;20745;50.882;6.962;2023-03-18T03:41:52;100329.59;;;11.14;100.00
34500;BME280;20745;50.882;6.962;2023-03-18T03:44:19;100336.41;;;11.10;100.00
34500;BME280;20745;50.882;6.962;2023-03-18T03:46:45;100329.72;;;11.06;100.00
34500;BME280;20745;50.882;6.962;2023-03-18T03:49:12;100341.03;;;10.95;100.00
34500;BME280;20745;50.882;6.962;2023-03-18T03:51:38;100335.00;;;10.93;100.00
34500;BME280;20745;50.882;6.962;2023-03-18T03:54:05;100341.19;;;10.87;100.00
34500;BME280;20745;50.882;6.962;2023-03-18T03:56:31;100343.88;;;10.87;100.00
34500;BME280;20745;50.882;6.962;2023-03-18T03:58:58;100339.75;;;10.70;100.00
34500;BME280;20745;50.882;6.962;2023-03-18T04:01:25;100340.38;;;10.72;100.00
34500;BME280;20745;50.882;6.962;2023-03-18T04:03:52;100352.38;;;10.84;100.00
34500;BME280;20745;50.882;6.962;2023-03-18T04:06:19;100349.28;;;10.87;100.00
34500;BME280;20745;50.882;6.962;2023-03-18T04:08:45;100353.44;;;10.90;100.00
34500;BME280;20745;50.882;6.962;2023-03-18T04:11:12;100354.13;;;10.92;100.00
34500;BME280;20745;50.882;6.962;2023-03-18T04:13:38;100361.00;;;10.94;100.00
34500;BME280;20745;50.882;6.962;2023-03-18T04:16:05;100359.94;;;10.95;100.00
34500;BME280;20745;50.882;6.962;2023-03-18T04:18:32;100364.59;;;11.01;100.00
34500;BME280;20745;50.882;6.962;2023-03-18T04:20:59;100362.53;;;11.03;100.00
34500;BME280;20745;50.882;6.962;2023-03-18T04:23:25;100363.06;;;11.13;100.00
34500;BME280;20745;50.882;6.962;2023-03-18T04:25:52;100364.34;;;11.17;100.00
34500;BME280;20745;50.882;6.962;2023-03-18T04:28:19;100372.69;;;11.22;100.00
34500;BME280;20745;50.882;6.962;2023-03-18T04:30:47;100370.16;;;11.21;100.00
34500;BME280;20745;50.882;6.962;2023-03-18T04:33:13;100382.09;;;11.26;100.00
34500;BME280;20745;50.882;6.962;2023-03-18T04:35:40;100380.69;;;11.30;100.00
34500;BME280;20745;50.882;6.962;2023-03-18T04:38:09;100383.56;;;11.29;100.00
34500;BME280;20745;50.882;6.962;2023-03-18T04:40:35;100391.88;;;11.27;100.00
34500;BME280;20745;50.882;6.962;2023-03-18T04:43:01;100387.56;;;11.33;100.00
34500;BME280;20745;50.882;6.962;2023-03-18T04:45:28;100389.41;;;11.32;100.00
34500;BME280;20745;50.882;6.962;2023-03-18T04:47:55;100390.25;;;11.33;100.00
34500;BME280;20745;50.882;6.962;2023-03-18T04:50:22;100381.44;;;11.24;100.00
34500;BME280;20745;50.882;6.962;2023-03-18T04:52:49;100393.53;;;11.28;100.00
34500;BME280;20745;50.882;6.962;2023-03-18T04:55:16;100384.81;;;11.26;100.00
34500;BME280;20745;50.882;6.962;2023-03-18T04:57:43;100390.41;;;11.25;100.00
34500;BME280;20745;50.882;6.962;2023-03-18T05:00:13;100386.84;;;11.24;100.00
34500;BME280;20745;50.882;6.962;2023-03-18T05:02:40;100380.16;;;11.20;100.00
34500;BME280;20745;50.882;6.962;2023-03-18T05:05:07;100398.50;;;11.25;100.00
34500;BME280;20745;50.882;6.962;2023-03-18T05:07:33;100396.81;;;11.24;100.00
34500;BME280;20745;50.882;6.962;2023-03-18T05:10:00;100386.72;;;11.11;100.00
34500;BME280;20745;50.882;6.962;2023-03-18T05:12:27;100404.03;;;11.17;100.00
34500;BME280;20745;50.882;6.962;2023-03-18T05:14:53;100396.31;;;11.14;100.00
34500;BME280;20745;50.882;6.962;2023-03-18T05:17:20;100397.53;;;11.11;100.00
34500;BME280;20745;50.882;6.962;2023-03-18T05:19:47;100395.41;;;11.07;100.00
34500;BME280;20745;50.882;6.962;2023-03-18T05:22:16;100394.13;;;11.03;100.00
34500;BME280;20745;50.882;6.962;2023-03-18T05:24:43;100394.78;;;11.05;100.00
34500;BME280;20745;50.882;6.962;2023-03-18T05:27:16;100396.81;;;11.03;100.00
34500;BME280;20745;50.882;6.962;2023-03-18T05:29:44;100394.50;;;11.00;100.00
34500;BME280;20745;50.882;6.962;2023-03-18T05:32:10;100398.31;;;11.05;100.00
34500;BME280;20745;50.882;6.962;2023-03-18T05:34:40;100398.09;;;11.07;100.00
34500;BME280;20745;50.882;6.962;2023-03-18T05:37:08;100391.63;;;11.01;100.00
34500;BME280;20745;50.882;6.962;2023-03-18T05:39:35;100387.25;;;11.00;100.00
34500;BME280;20745;50.882;6.962;2023-03-18T05:42:03;100400.94;;;10.99;100.00
34500;BME280;20745;50.882;6.962;2023-03-18T05:44:30;100402.81;;;10.98;100.00
34500;BME280;20745;50.882;6.962;2023-03-18T05:46:56;100399.84;;;10.93;100.00
34500;BME280;20745;50.882;6.962;2023-03-18T05:49:24;100392.75;;;10.92;100.00
34500;BME280;20745;50.882;6.962;2023-03-18T05:51:50;100395.41;;;10.86;100.00
34500;BME280;20745;50.882;6.962;2023-03-18T05:54:20;100401.91;;;10.91;100.00
34500;BME280;20745;50.882;6.962;2023-03-18T05:56:47;100401.44;;;10.88;100.00
34500;BME280;20745;50.882;6.962;2023-03-18T05:59:13;100409.09;;;10.84;100.00
34500;BME280;20745;50.882;6.962;2023-03-18T06:01:40;100414.50;;;10.84;100.00
34500;BME280;20745;50.882;6.962;2023-03-18T06:04:07;100426.97;;;10.85;100.00
34500;BME280;20745;50.882;6.962;2023-03-18T06:06:35;100429.66;;;10.85;100.00
34500;BME280;20745;50.882;6.962;2023-03-18T06:09:08;100425.13;;;10.86;100.00
34500;BME280;20745;50.882;6.962;2023-03-18T06:11:36;100433.03;;;10.87;100.00
34500;BME280;20745;50.882;6.962;2023-03-18T06:14:03;100426.34;;;10.83;100.00
34500;BME280;20745;50.882;6.962;2023-03-18T06:16:33;100431.75;;;10.83;100.00
34500;BME280;20745;50.882;6.962;2023-03-18T06:19:00;100434.63;;;10.82;100.00
34500;BME280;20745;50.882;6.962;2023-03-18T06:21:27;100436.09;;;10.84;100.00
34500;BME280;20745;50.882;6.962;2023-03-18T06:23:54;100434.06;;;10.86;100.00
34500;BME280;20745;50.882;6.962;2023-03-18T06:26:21;100424.94;;;10.87;100.00
34500;BME280;20745;50.882;6.962;2023-03-18T06:28:48;100433.94;;;10.94;100.00
34500;BME280;20745;50.882;6.962;2023-03-18T06:31:14;100435.41;;;10.97;100.00
34500;BME280;20745;50.882;6.962;2023-03-18T06:33:41;100428.59;;;11.01;100.00
34500;BME280;20745;50.882;6.962;2023-03-18T06:36:08;100436.13;;;11.05;100.00
34500;BME280;20745;50.882;6.962;2023-03-18T06:38:36;100432.88;;;11.10;100.00
34500;BME280;20745;50.882;6.962;2023-03-18T06:41:03;100442.44;;;11.12;100.00
34500;BME280;20745;50.882;6.962;2023-03-18T06:43:30;100442.72;;;11.17;100.00
34500;BME280;20745;50.882;6.962;2023-03-18T06:45:57;100441.31;;;11.21;100.00
34500;BME280;20745;50.882;6.962;2023-03-18T06:48:24;100441.97;;;11.23;100.00
34500;BME280;20745;50.882;6.962;2023-03-18T06:50:51;100428.81;;;11.20;100.00
34500;BME280;20745;50.882;6.962;2023-03-18T06:53:17;100439.25;;;11.23;100.00
34500;BME280;20745;50.882;6.962;2023-03-18T06:55:44;100445.56;;;11.30;100.00
34500;BME280;20745;50.882;6.962;2023-03-18T06:58:11;100453.88;;;11.29;100.00
34500;BME280;20745;50.882;6.962;2023-03-18T07:00:37;100448.50;;;11.35;100.00
34500;BME280;20745;50.882;6.962;2023-03-18T07:03:06;100448.13;;;11.38;100.00
34500;BME280;20745;50.882;6.962;2023-03-18T07:05:33;100441.94;;;11.44;100.00
34500;BME280;20745;50.882;6.962;2023-03-18T07:08:00;100442.19;;;11.49;100.00
34500;BME280;20745;50.882;6.962;2023-03-18T07:10:28;100445.16;;;11.54;100.00
34500;BME280;20745;50.882;6.962;2023-03-18T07:12:55;100454.19;;;11.61;100.00
34500;BME280;20745;50.882;6.962;2023-03-18T07:15:23;100449.69;;;11.68;100.00
34500;BME280;20745;50.882;6.962;2023-03-18T07:17:49;100461.59;;;11.74;100.00
34500;BME280;20745;50.882;6.962;2023-03-18T07:20:18;100459.34;;;11.77;100.00
34500;BME280;20745;50.882;6.962;2023-03-18T07:22:45;100455.22;;;11.81;100.00
34500;BME280;20745;50.882;6.962;2023-03-18T07:25:12;100456.06;;;11.82;100.00
34500;BME280;20745;50.882;6.962;2023-03-18T07:27:40;100469.38;;;11.83;100.00
34500;BME280;20745;50.882;6.962;2023-03-18T07:30:08;100464.41;;;11.87;100.00
34500;BME280;20745;50.882;6.962;2023-03-18T07:32:36;100477.34;;;11.91;100.00
34500;BME280;20745;50.882;6.962;2023-03-18T07:35:05;100466.13;;;11.94;100.00
34500;BME280;20745;50.882;6.962;2023-03-18T07:37:32;100473.69;;;11.99;100.00
34500;BME280;20745;50.882;6.962;2023-03-18T07:39:58;100481.22;;;12.03;100.00
34500;BME280;20745;50.882;6.962;2023-03-18T07:42:25;100479.78;;;12.07;100.00
34500;BME280;20745;50.882;6.962;2023-03-18T07:44:52;100489.16;;;12.11;100.00
34500;BME280;20745;50.882;6.962;2023-03-18T07:47:18;100493.53;;;12.12;100.00
34500;BME280;20745;50.882;6.962;2023-03-18T07:49:46;100481.69;;;12.13;100.00
34500;BME280;20745;50.882;6.962;2023-03-18T07:52:12;100487.81;;;12.22;100.00
34500;BME280;20745;50.882;6.962;2023-03-18T07:54:39;100489.28;;;12.24;100.00
34500;BME280;20745;50.882;6.962;2023-03-18T07:57:07;100479.72;;;12.28;100.00
34500;BME280;20745;50.882;6.962;2023-03-18T07:59:33;100491.22;;;12.37;100.00
34500;BME280;20745;50.882;6.962;2023-03-18T08:02:00;100486.06;;;12.42;100.00
34500;BME280;20745;50.882;6.962;2023-03-18T08:04:27;100504.03;;;12.50;100.00
34500;BME280;20745;50.882;6.962;2023-03-18T08:06:53;100494.28;;;12.55;100.00
34500;BME280;20745;50.882;6.962;2023-03-18T08:09:20;100499.09;;;12.60;100.00
34500;BME280;20745;50.882;6.962;2023-03-18T08:11:47;100502.03;;;12.65;100.00
34500;BME280;20745;50.882;6.962;2023-03-18T08:14:14;100502.69;;;12.67;100.00
34500;BME280;20745;50.882;6.962;2023-03-18T08:16:40;100510.41;;;12.70;100.00
34500;BME280;20745;50.882;6.962;2023-03-18T08:19:07;100514.97;;;12.69;100.00
34500;BME280;20745;50.882;6.962;2023-03-18T08:21:34;100461.63;;;12.35;100.00
34500;BME280;20745;50.882;6.962;2023-03-18T08:24:01;100509.97;;;12.73;100.00
34500;BME280;20745;50.882;6.962;2023-03-18T08:26:27;100512.28;;;12.76;100.00
34500;BME280;20745;50.882;6.962;2023-03-18T08:28:53;100520.03;;;12.79;100.00
34500;BME280;20745;50.882;6.962;2023-03-18T08:31:20;100520.28;;;12.84;100.00
34500;BME280;20745;50.882;6.962;2023-03-18T08:33:47;100523.19;;;12.89;100.00
34500;BME280;20745;50.882;6.962;2023-03-18T08:36:15;100513.66;;;12.93;100.00
34500;BME280;20745;50.882;6.962;2023-03-18T08:38:41;100528.91;;;13.00;100.00
34500;BME280;20745;50.882;6.962;2023-03-18T08:41:08;100527.69;;;13.03;100.00
34500;BME280;20745;50.882;6.962;2023-03-18T08:43:35;100528.13;;;13.06;100.00
34500;BME280;20745;50.882;6.962;2023-03-18T08:46:04;100527.50;;;13.11;100.00
34500;BME280;20745;50.882;6.962;2023-03-18T08:48:31;100530.63;;;13.14;100.00
34500;BME280;20745;50.882;6.962;2023-03-18T08:50:58;100520.44;;;13.10;100.00
34500;BME280;20745;50.882;6.962;2023-03-18T08:53:24;100524.00;;;13.17;100.00
34500;BME280;20745;50.882;6.962;2023-03-18T08:55:51;100529.03;;;13.20;100.00
34500;BME280;20745;50.882;6.962;2023-03-18T08:58:18;100523.81;;;13.25;100.00
34500;BME280;20745;50.882;6.962;2023-03-18T09:00:44;100512.56;;;13.28;100.00
34500;BME280;20745;50.882;6.962;2023-03-18T09:03:11;100517.38;;;13.39;100.00
34500;BME280;20745;50.882;6.962;2023-03-18T09:05:38;100518.44;;;13.44;100.00
34500;BME280;20745;50.882;6.962;2023-03-18T09:08:05;100515.94;;;13.49;100.00
34500;BME280;20745;50.882;6.962;2023-03-18T09:10:32;100516.19;;;13.54;100.00
34500;BME280;20745;50.882;6.962;2023-03-18T09:12:58;100509.50;;;13.57;100.00
34500;BME280;20745;50.882;6.962;2023-03-18T09:15:26;100510.34;;;13.64;100.00
34500;BME280;20745;50.882;6.962;2023-03-18T09:17:52;100498.66;;;13.63;100.00
34500;BME280;20745;50.882;6.962;2023-03-18T09:20:37;100517.06;;;13.74;100.00
34500;BME280;20745;50.882;6.962;2023-03-18T09:23:05;100516.63;;;13.77;100.00
34500;BME280;20745;50.882;6.962;2023-03-18T09:25:32;100515.78;;;13.83;100.00
34500;BME280;20745;50.882;6.962;2023-03-18T09:28:00;100518.94;;;13.87;100.00
34500;BME280;20745;50.882;6.962;2023-03-18T09:30:28;100519.56;;;13.89;100.00
34500;BME280;20745;50.882;6.962;2023-03-18T09:32:55;100520.19;;;13.91;100.00
34500;BME280;20745;50.882;6.962;2023-03-18T09:35:22;100517.47;;;13.91;100.00
34500;BME280;20745;50.882;6.962;2023-03-18T09:37:49;100523.34;;;13.94;100.00
34500;BME280;20745;50.882;6.962;2023-03-18T09:40:33;100525.00;;;13.95;100.00
34500;BME280;20745;50.882;6.962;2023-03-18T09:46:22;100519.97;;;13.99;100.00
34500;BME280;20745;50.882;6.962;2023-03-18T09:49:19;100525.00;;;14.02;100.00
34500;BME280;20745;50.882;6.962;2023-03-18T09:52:02;100516.44;;;14.05;100.00
34500;BME280;20745;50.882;6.962;2023-03-18T09:54:56;100519.59;;;14.08;100.00
34500;BME280;20745;50.882;6.962;2023-03-18T09:57:31;100514.56;;;14.05;100.00
34500;BME280;20745;50.882;6.962;2023-03-18T10:02:34;100521.44;;;14.21;100.00
34500;BME280;20745;50.882;6.962;2023-03-18T10:05:05;100518.34;;;14.24;100.00
34500;BME280;20745;50.882;6.962;2023-03-18T10:07:39;100529.00;;;14.32;100.00
34500;BME280;20745;50.882;6.962;2023-03-18T10:10:19;100516.22;;;14.39;100.00
34500;BME280;20745;50.882;6.962;2023-03-18T10:12:50;100493.69;;;14.25;100.00
34500;BME280;20745;50.882;6.962;2023-03-18T10:15:28;100520.19;;;14.49;100.00
34500;BME280;20745;50.882;6.962;2023-03-18T10:18:10;100521.22;;;14.55;100.00
34500;BME280;20745;50.882;6.962;2023-03-18T10:20:51;100517.66;;;14.61;100.00
34500;BME280;20745;50.882;6.962;2023-03-18T10:23:50;100517.63;;;14.67;100.00
34500;BME280;20745;50.882;6.962;2023-03-18T10:26:30;100510.31;;;14.68;100.00
34500;BME280;20745;50.882;6.962;2023-03-18T10:29:02;100505.94;;;14.67;100.00
34500;BME280;20745;50.882;6.962;2023-03-18T10:31:47;100508.66;;;14.67;100.00
34500;BME280;20745;50.882;6.962;2023-03-18T10:34:19;100515.38;;;14.64;100.00
34500;BME280;20745;50.882;6.962;2023-03-18T10:39:25;100512.44;;;14.66;100.00
34500;BME280;20745;50.882;6.962;2023-03-18T10:41:53;100512.88;;;14.63;100.00
34500;BME280;20745;50.882;6.962;2023-03-18T10:44:29;100519.13;;;14.63;100.00
34500;BME280;20745;50.882;6.962;2023-03-18T10:47:02;100516.59;;;14.62;100.00
34500;BME280;20745;50.882;6.962;2023-03-18T10:49:38;100522.88;;;14.62;100.00
34500;BME280;20745;50.882;6.962;2023-03-18T10:52:30;100511.81;;;14.64;100.00
34500;BME280;20745;50.882;6.962;2023-03-18T10:54:58;100519.13;;;14.70;100.00
34500;BME280;20745;50.882;6.962;2023-03-18T10:57:25;100519.50;;;14.73;100.00
34500;BME280;20745;50.882;6.962;2023-03-18T10:59:52;100522.84;;;14.82;100.00
34500;BME280;20745;50.882;6.962;2023-03-18T11:02:32;100522.41;;;14.85;100.00
34500;BME280;20745;50.882;6.962;2023-03-18T11:05:03;100523.47;;;14.84;100.00
34500;BME280;20745;50.882;6.962;2023-03-18T11:07:30;100530.13;;;14.95;100.00
34500;BME280;20745;50.882;6.962;2023-03-18T11:10:16;100527.22;;;14.96;100.00
34500;BME280;20745;50.882;6.962;2023-03-18T11:12:45;100525.72;;;15.00;100.00
34500;BME280;20745;50.882;6.962;2023-03-18T11:15:11;100521.94;;;15.01;100.00
34500;BME280;20745;50.882;6.962;2023-03-18T11:17:38;100519.38;;;15.13;100.00
34500;BME280;20745;50.882;6.962;2023-03-18T11:20:22;100528.94;;;15.28;100.00
34500;BME280;20745;50.882;6.962;2023-03-18T11:22:52;100513.81;;;15.45;100.00
34500;BME280;20745;50.882;6.962;2023-03-18T11:25:22;100522.97;;;15.57;100.00
34500;BME280;20745;50.882;6.962;2023-03-18T11:27:57;100524.63;;;15.58;100.00
34500;BME280;20745;50.882;6.962;2023-03-18T11:30:28;100525.03;;;15.62;100.00
34500;BME280;20745;50.882;6.962;2023-03-18T11:33:04;100517.25;;;15.65;100.00
34500;BME280;20745;50.882;6.962;2023-03-18T11:35:43;100515.78;;;15.69;100.00
34500;BME280;20745;50.882;6.962;2023-03-18T11:38:15;100515.78;;;15.69;100.00
34500;BME280;20745;50.882;6.962;2023-03-18T11:40:42;100513.84;;;15.76;100.00
34500;BME280;20745;50.882;6.962;2023-03-18T11:43:19;100509.84;;;15.79;100.00
34500;BME280;20745;50.882;6.962;2023-03-18T11:45:50;100511.84;;;15.90;100.00
34500;BME280;20745;50.882;6.962;2023-03-18T11:51:05;100477.75;;;16.05;100.00
34500;BME280;20745;50.882;6.962;2023-03-18T11:59:11;100499.22;;;16.44;100.00
34500;BME280;20745;50.882;6.962;2023-03-18T12:02:12;100493.16;;;16.42;100.00
34500;BME280;20745;50.882;6.962;2023-03-18T12:15:34;100482.44;;;16.65;100.00
34500;BME280;20745;50.882;6.962;2023-03-18T12:18:15;100476.06;;;16.71;100.00
34500;BME280;20745;50.882;6.962;2023-03-18T12:20:54;100479.50;;;16.85;100.00
34500;BME280;20745;50.882;6.962;2023-03-18T12:26:25;100480.31;;;17.03;100.00
34500;BME280;20745;50.882;6.962;2023-03-18T12:34:19;100480.09;;;17.35;100.00
34500;BME280;20745;50.882;6.962;2023-03-18T12:37:11;100474.38;;;17.43;100.00
34500;BME280;20745;50.882;6.962;2023-03-18T12:39:44;100472.84;;;17.47;85.46
34500;BME280;20745;50.882;6.962;2023-03-18T12:42:37;100469.91;;;17.42;85.32
34500;BME280;20745;50.882;6.962;2023-03-18T12:45:14;100467.84;;;17.44;84.38
34500;BME280;20745;50.882;6.962;2023-03-18T12:48:23;100462.41;;;17.37;84.98
34500;BME280;20745;50.882;6.962;2023-03-18T12:51:14;100459.69;;;17.37;85.55
34500;BME280;20745;50.882;6.962;2023-03-18T12:53:47;100453.50;;;17.30;86.31
34500;BME280;20745;50.882;6.962;2023-03-18T12:56:18;100458.91;;;17.19;85.01
34500;BME280;20745;50.882;6.962;2023-03-18T12:58:50;100453.78;;;17.11;85.44
34500;BME280;20745;50.882;6.962;2023-03-18T13:01:35;100455.31;;;17.07;87.12
34500;BME280;20745;50.882;6.962;2023-03-18T13:04:06;100454.56;;;16.99;88.00
34500;BME280;20745;50.882;6.962;2023-03-18T13:06:44;100452.97;;;16.92;88.24
34500;BME280;20745;50.882;6.962;2023-03-18T13:17:23;100455.38;;;16.64;90.61
34500;BME280;20745;50.882;6.962;2023-03-18T13:19:50;100455.03;;;16.60;89.05
34500;BME280;20745;50.882;6.962;2023-03-18T13:22:42;100460.09;;;16.57;89.35
34500;BME280;20745;50.882;6.962;2023-03-18T13:31:16;100432.41;;;16.35;90.96
34500;BME280;20745;50.882;6.962;2023-03-18T13:34:18;100460.31;;;16.55;92.77
34500;BME280;20745;50.882;6.962;2023-03-18T13:39:48;100459.28;;;16.56;91.47
34500;BME280;20745;50.882;6.962;2023-03-18T13:42:29;100452.53;;;16.59;91.54
34500;BME280;20745;50.882;6.962;2023-03-18T13:44:58;100454.63;;;16.57;90.75
34500;BME280;20745;50.882;6.962;2023-03-18T13:47:32;100452.97;;;16.56;94.16
34500;BME280;20745;50.882;6.962;2023-03-18T13:50:04;100450.34;;;16.49;94.10